Terminal Aerodrome Forecast
Issued by NWS Wilmington, OH

Home | Current Version | Previous Version | Text Only | Print | Product List | Glossary On
Versions: 1 2 3 4 5 6 7 8 9 10 11 12 13 14 15 16 17 18 19
772
FTUS41 KILN 082340
TAFILN
TAF
KILN 082340Z 0900/0924 26009KT 5SM -SN SCT015 OVC035
      TEMPO 0900/0902 1SM -SN BKN015
     FM090400 28012KT 3SM -SN BKN015 OVC025
     FM090900 27012KT 1SM -SN BKN007 OVC012
     FM091400 28014KT P6SM -SN SCT009 OVC018
     FM091800 27015G23KT P6SM OVC022=

USA.gov is the U.S. government's official web portal to all federal, state and local government web resources and services.